Time;durP1;ratioP1;P1;durP2;ratioP2;P2;SDS_P1;SDS_P2;PMS_P1;PMS_P2;Temp;Humidity;BMP_temperature;BMP_pressure;BME280_temperature;BME280_humidity;BME280_pressure;Samples;Min_cycle;Max_cycle;Signal;HPM_P1;HPM_P2
2021/09/19 00:00:54;;;;;;;930.35;830.13;;;;;;;;;;5008196;28;20138;-78
2021/09/19 00:03:20;;;;;;;933.95;833.65;;;;;;;;;;5009391;28;20057;-77
2021/09/19 00:05:46;;;;;;;932.53;831.88;;;;;;;;;;5008170;28;20032;-76
2021/09/19 00:08:12;;;;;;;935.35;834.67;;;;;;;;;;5003695;28;20443;-78
2021/09/19 00:10:38;;;;;;;938.97;838.05;;;;;;;;;;5008031;28;20052;-77
2021/09/19 00:13:04;;;;;;;935.63;835.05;;;;;;;;;;5007087;28;20469;-78
2021/09/19 00:15:30;;;;;;;925.15;824.95;;;;;;;;;;5001677;28;20109;-77
2021/09/19 00:17:56;;;;;;;935.97;835.17;;;;;;;;;;5007913;28;20439;-77
2021/09/19 00:20:22;;;;;;;930.80;830.25;;;;;;;;;;5007718;28;20030;-77
2021/09/19 00:22:48;;;;;;;934.30;833.58;;;;;;;;;;5008315;28;20497;-76
2021/09/19 00:25:14;;;;;;;936.08;835.20;;;;;;;;;;4991338;28;20145;-77
2021/09/19 00:27:41;;;;;;;932.58;831.70;;;;;;;;;;5003613;28;20532;-77
2021/09/19 00:30:07;;;;;;;934.00;833.10;;;;;;;;;;5003472;28;20026;-78
2021/09/19 00:32:33;;;;;;;927.75;827.10;;;;;;;;;;5009072;28;20109;-78
2021/09/19 00:35:01;;;;;;;935.72;834.58;;;;;;;;;;5004503;28;20100;-78
2021/09/19 00:37:27;;;;;;;933.55;832.53;;;;;;;;;;5008013;28;20037;-78
2021/09/19 00:39:54;;;;;;;941.88;840.58;;;;;;;;;;5005886;28;20331;-78
2021/09/19 00:42:19;;;;;;;929.85;829.25;;;;;;;;;;5010040;28;20030;-77
2021/09/19 00:44:46;;;;;;;941.55;840.00;;;;;;;;;;5006187;28;20056;-78
2021/09/19 00:47:12;;;;;;;944.63;843.22;;;;;;;;;;5007360;28;20022;-78
2021/09/19 00:49:38;;;;;;;948.22;846.55;;;;;;;;;;4998924;28;20514;-77
2021/09/19 00:52:04;;;;;;;949.58;847.88;;;;;;;;;;5009566;28;20080;-77
2021/09/19 00:54:37;;;;;;;944.60;843.00;;;;;;;;;;5007050;28;20033;-78
2021/09/19 00:57:03;;;;;;;938.70;837.63;;;;;;;;;;5006174;28;20458;-78
2021/09/19 00:59:29;;;;;;;938.28;837.28;;;;;;;;;;5004525;28;20076;-78
2021/09/19 01:01:55;;;;;;;932.47;831.83;;;;;;;;;;5007936;28;20100;-77
2021/09/19 01:04:21;;;;;;;945.40;843.72;;;;;;;;;;5027732;28;20446;-78
2021/09/19 01:06:47;;;;;;;934.08;832.80;;;;;;;;;;5006491;28;20356;-77
2021/09/19 01:09:13;;;;;;;933.13;832.17;;;;;;;;;;5005348;28;20389;-76
2021/09/19 01:11:40;;;;;;;925.10;824.70;;;;;;;;;;5006881;28;20050;-78
2021/09/19 01:14:07;;;;;;;931.85;831.05;;;;;;;;;;5008854;28;20049;-78
2021/09/19 01:16:33;;;;;;;935.30;834.60;;;;;;;;;;5008242;28;20076;-78
2021/09/19 01:19:00;;;;;;;929.55;828.97;;;;;;;;;;5008944;28;20481;-78
2021/09/19 01:21:26;;;;;;;922.15;821.88;;;;;;;;;;5015321;28;20053;-77
2021/09/19 01:23:55;;;;;;;924.83;824.58;;;;;;;;;;5008923;28;20030;-77
2021/09/19 01:26:22;;;;;;;922.97;822.85;;;;;;;;;;5003982;28;20033;-77
2021/09/19 01:28:48;;;;;;;942.53;841.30;;;;;;;;;;5006448;28;20026;-78
2021/09/19 01:31:14;;;;;;;924.13;824.13;;;;;;;;;;5006795;28;20026;-77
2021/09/19 01:33:40;;;;;;;922.40;822.17;;;;;;;;;;5007238;28;20026;-77
2021/09/19 01:36:10;;;;;;;932.35;831.75;;;;;;;;;;5005383;28;20156;-78
2021/09/19 01:38:36;;;;;;;;;;;;;;;;;;5001245;28;20034;-77
2021/09/19 01:41:02;;;;;;;899.65;798.10;;;;;;;;;;5006496;28;19915;-77
2021/09/19 01:43:28;;;;;;;917.88;817.85;;;;;;;;;;5005856;28;20406;-78
2021/09/19 01:45:54;;;;;;;918.55;818.35;;;;;;;;;;4999508;28;20041;-77
2021/09/19 01:48:20;;;;;;;934.30;833.22;;;;;;;;;;5005703;28;20120;-78
2021/09/19 01:50:46;;;;;;;932.60;831.65;;;;;;;;;;4991084;28;20160;-76
2021/09/19 01:53:12;;;;;;;930.67;830.00;;;;;;;;;;5011855;28;20028;-78
2021/09/19 01:55:38;;;;;;;929.58;829.00;;;;;;;;;;5010505;28;20034;-77
2021/09/19 01:58:04;;;;;;;924.10;823.85;;;;;;;;;;5002105;28;20113;-78
2021/09/19 02:00:30;;;;;;;925.42;825.08;;;;;;;;;;5006078;28;20026;-77
2021/09/19 02:02:56;;;;;;;923.65;823.55;;;;;;;;;;5006073;28;20030;-78
2021/09/19 02:05:22;;;;;;;926.33;825.90;;;;;;;;;;5004037;28;20124;-77
2021/09/19 02:07:48;;;;;;;919.05;819.03;;;;;;;;;;5001687;28;20497;-77
2021/09/19 02:10:15;;;;;;;925.22;824.95;;;;;;;;;;5008859;28;20055;-78
2021/09/19 02:12:42;;;;;;;923.65;822.97;;;;;;;;;;5011934;28;20046;-77
2021/09/19 02:15:08;;;;;;;926.75;826.15;;;;;;;;;;4990743;28;20393;-77
2021/09/19 02:17:35;;;;;;;919.92;819.67;;;;;;;;;;5003754;28;20038;-77
2021/09/19 02:20:01;;;;;;;916.22;816.20;;;;;;;;;;5011599;28;20490;-77
2021/09/19 02:22:27;;;;;;;908.83;809.15;;;;;;;;;;4997238;28;20327;-77
2021/09/19 02:24:54;;;;;;;904.45;805.05;;;;;;;;;;5004120;28;20065;-76
2021/09/19 02:27:20;;;;;;;906.22;806.75;;;;;;;;;;5007513;28;20022;-77
2021/09/19 02:29:47;;;;;;;912.03;812.38;;;;;;;;;;5005144;28;20030;-76
2021/09/19 02:32:13;;;;;;;899.00;799.60;;;;;;;;;;5005233;28;20265;-77
2021/09/19 02:34:39;;;;;;;901.78;802.50;;;;;;;;;;5004942;28;20022;-76
2021/09/19 02:37:05;;;;;;;903.80;804.40;;;;;;;;;;4995293;28;20378;-77
2021/09/19 02:39:31;;;;;;;902.72;803.33;;;;;;;;;;5002951;28;20030;-77
2021/09/19 02:41:57;;;;;;;900.85;801.38;;;;;;;;;;5004869;28;20029;-77
2021/09/19 02:44:23;;;;;;;902.45;802.50;;;;;;;;;;5004586;28;20084;-77
2021/09/19 02:46:49;;;;;;;906.42;806.75;;;;;;;;;;4989807;28;20030;-77
2021/09/19 02:49:16;;;;;;;895.25;795.33;;;;;;;;;;5007443;28;20079;-77
2021/09/19 02:51:42;;;;;;;900.15;800.80;;;;;;;;;;5005615;28;20084;-77
2021/09/19 02:54:08;;;;;;;895.28;795.30;;;;;;;;;;5006223;28;20026;-77
2021/09/19 02:56:34;;;;;;;892.92;793.55;;;;;;;;;;5006846;28;20030;-77
2021/09/19 02:59:00;;;;;;;907.30;807.75;;;;;;;;;;4992013;28;20030;-78
2021/09/19 03:01:26;;;;;;;907.53;807.92;;;;;;;;;;5008832;28;20061;-77
2021/09/19 03:03:52;;;;;;;894.42;794.75;;;;;;;;;;5005291;28;20037;-77
2021/09/19 03:06:21;;;;;;;897.72;797.90;;;;;;;;;;5005320;28;20022;-76
2021/09/19 03:08:47;;;;;;;898.15;798.08;;;;;;;;;;5001896;28;20539;-77
2021/09/19 03:11:13;;;;;;;894.60;792.58;;;;;;;;;;4998118;28;20394;-77
2021/09/19 03:13:39;;;;;;;905.28;805.63;;;;;;;;;;5004042;28;20026;-77
2021/09/19 03:16:05;;;;;;;891.47;792.22;;;;;;;;;;4996368;28;20034;-76
2021/09/19 03:18:31;;;;;;;892.47;792.42;;;;;;;;;;5011371;28;20100;-78
2021/09/19 03:20:57;;;;;;;886.80;782.15;;;;;;;;;;5022609;28;20352;-76
2021/09/19 03:23:23;;;;;;;888.95;784.58;;;;;;;;;;5003811;28;20052;-77
2021/09/19 03:25:49;;;;;;;887.45;783.65;;;;;;;;;;5004825;28;20036;-77
2021/09/19 03:28:15;;;;;;;891.00;787.25;;;;;;;;;;5000926;28;20032;-77
2021/09/19 03:30:41;;;;;;;892.60;792.25;;;;;;;;;;4992504;28;20047;-77
2021/09/19 03:33:07;;;;;;;889.13;786.75;;;;;;;;;;5000898;28;20018;-76
2021/09/19 03:35:33;;;;;;;887.80;782.83;;;;;;;;;;5017987;28;20064;-77
2021/09/19 03:37:59;;;;;;;891.97;789.55;;;;;;;;;;5022919;28;20026;-77
2021/09/19 03:40:25;;;;;;;888.58;779.20;;;;;;;;;;5008774;28;20034;-76
2021/09/19 03:42:52;;;;;;;893.72;791.60;;;;;;;;;;5007306;28;20076;-76
2021/09/19 03:45:18;;;;;;;894.70;792.10;;;;;;;;;;5004034;28;20036;-77
2021/09/19 03:47:44;;;;;;;896.13;795.03;;;;;;;;;;4996220;28;20081;-76
2021/09/19 03:50:11;;;;;;;891.13;788.25;;;;;;;;;;4996787;28;20089;-77
2021/09/19 03:52:38;;;;;;;895.65;795.28;;;;;;;;;;5008563;28;20071;-76
2021/09/19 03:55:04;;;;;;;890.90;786.63;;;;;;;;;;5002691;28;20331;-77
2021/09/19 03:57:30;;;;;;;901.15;798.50;;;;;;;;;;4999424;28;20418;-77
2021/09/19 03:59:56;;;;;;;895.08;791.80;;;;;;;;;;4992079;28;20022;-76
2021/09/19 04:02:22;;;;;;;895.78;794.03;;;;;;;;;;4990438;28;20786;-77
2021/09/19 04:04:48;;;;;;;893.35;786.65;;;;;;;;;;4991322;28;20037;-77
2021/09/19 04:07:14;;;;;;;895.65;790.65;;;;;;;;;;4990986;28;20019;-76
2021/09/19 04:09:40;;;;;;;892.88;787.40;;;;;;;;;;5013761;28;20484;-77
2021/09/19 04:12:06;;;;;;;891.53;787.53;;;;;;;;;;5001097;28;20050;-76
2021/09/19 04:14:32;;;;;;;896.60;796.95;;;;;;;;;;4996024;28;20033;-75
2021/09/19 04:16:58;;;;;;;888.58;782.58;;;;;;;;;;4995180;28;20350;-77
2021/09/19 04:19:24;;;;;;;894.25;794.03;;;;;;;;;;4998557;28;20026;-76
2021/09/19 04:21:50;;;;;;;895.30;793.65;;;;;;;;;;5010105;28;20030;-77
2021/09/19 04:24:16;;;;;;;891.92;787.30;;;;;;;;;;5007687;28;20536;-76
2021/09/19 04:26:42;;;;;;;892.90;787.10;;;;;;;;;;5015763;28;20474;-76
2021/09/19 04:29:08;;;;;;;896.83;793.72;;;;;;;;;;5000429;28;20361;-76
2021/09/19 04:31:34;;;;;;;900.05;796.63;;;;;;;;;;5005533;28;20103;-77
2021/09/19 04:34:00;;;;;;;899.10;788.72;;;;;;;;;;4997165;28;20057;-77
2021/09/19 04:36:26;;;;;;;899.38;793.08;;;;;;;;;;5010121;28;20525;-76
2021/09/19 04:38:52;;;;;;;903.05;798.40;;;;;;;;;;5004141;28;20042;-77
2021/09/19 04:41:18;;;;;;;902.10;800.55;;;;;;;;;;5006488;28;20064;-77
2021/09/19 04:43:43;;;;;;;895.63;787.10;;;;;;;;;;5009392;28;20036;-77
2021/09/19 04:46:09;;;;;;;899.97;796.83;;;;;;;;;;5007862;28;20046;-76
2021/09/19 04:48:35;;;;;;;898.40;795.20;;;;;;;;;;5002869;28;20235;-77
2021/09/19 04:51:01;;;;;;;899.75;790.40;;;;;;;;;;4995998;28;20030;-76
2021/09/19 04:53:27;;;;;;;895.55;784.05;;;;;;;;;;4988489;28;20382;-77
2021/09/19 04:55:53;;;;;;;897.05;786.65;;;;;;;;;;5004997;28;20037;-76
2021/09/19 04:58:19;;;;;;;895.50;784.10;;;;;;;;;;5004896;28;20141;-76
2021/09/19 05:00:45;;;;;;;898.33;793.15;;;;;;;;;;5007667;28;20393;-77
2021/09/19 05:03:11;;;;;;;895.72;786.10;;;;;;;;;;5007214;28;20094;-76
2021/09/19 05:05:37;;;;;;;900.42;794.80;;;;;;;;;;5006911;28;20026;-78
2021/09/19 05:08:03;;;;;;;902.65;795.72;;;;;;;;;;5007769;28;20041;-77
2021/09/19 05:10:29;;;;;;;903.38;799.05;;;;;;;;;;5007551;28;20394;-77
2021/09/19 05:12:55;;;;;;;902.58;792.28;;;;;;;;;;5007553;28;20410;-76
2021/09/19 05:15:21;;;;;;;905.30;802.00;;;;;;;;;;5005693;28;20026;-77
2021/09/19 05:17:47;;;;;;;904.10;796.83;;;;;;;;;;5015578;28;20648;-75
2021/09/19 05:20:13;;;;;;;906.03;801.30;;;;;;;;;;5005681;28;20117;-78
2021/09/19 05:22:39;;;;;;;904.95;798.58;;;;;;;;;;5008056;28;20038;-78
2021/09/19 05:25:05;;;;;;;902.40;797.53;;;;;;;;;;5007445;28;20021;-76
2021/09/19 05:27:31;;;;;;;906.42;802.65;;;;;;;;;;5006722;28;20030;-77
2021/09/19 05:29:57;;;;;;;898.22;791.83;;;;;;;;;;5005460;28;20512;-76
2021/09/19 05:32:23;;;;;;;902.42;798.03;;;;;;;;;;5008788;28;20030;-77
2021/09/19 05:34:49;;;;;;;904.95;803.03;;;;;;;;;;5012181;28;20030;-78
2021/09/19 05:37:15;;;;;;;903.33;796.85;;;;;;;;;;5007480;28;20721;-76
2021/09/19 05:39:41;;;;;;;910.45;809.22;;;;;;;;;;5003610;28;20544;-77
2021/09/19 05:42:07;;;;;;;909.92;808.55;;;;;;;;;;5004762;28;20469;-77
2021/09/19 05:44:33;;;;;;;902.53;799.10;;;;;;;;;;5005719;28;20033;-77
2021/09/19 05:46:59;;;;;;;903.63;796.38;;;;;;;;;;5006095;28;20441;-77
2021/09/19 05:49:25;;;;;;;908.25;806.10;;;;;;;;;;4995387;28;20026;-78
2021/09/19 05:51:51;;;;;;;907.63;804.75;;;;;;;;;;5014099;28;20120;-76
2021/09/19 05:54:17;;;;;;;906.88;801.17;;;;;;;;;;5017236;28;20029;-76
2021/09/19 05:56:43;;;;;;;906.20;803.53;;;;;;;;;;5008171;28;20481;-77
2021/09/19 05:59:09;;;;;;;908.25;807.60;;;;;;;;;;5003695;28;20117;-77
2021/09/19 06:01:35;;;;;;;914.97;813.67;;;;;;;;;;5004221;28;20034;-77
2021/09/19 06:04:01;;;;;;;917.22;816.38;;;;;;;;;;5002316;28;20061;-78
2021/09/19 06:06:27;;;;;;;910.28;809.60;;;;;;;;;;5004769;28;20045;-77
2021/09/19 06:08:53;;;;;;;918.25;816.95;;;;;;;;;;5010286;28;20030;-77
2021/09/19 06:11:19;;;;;;;920.70;819.40;;;;;;;;;;5006021;28;20038;-77
2021/09/19 06:13:45;;;;;;;911.47;810.83;;;;;;;;;;5006473;28;20033;-76
2021/09/19 06:16:11;;;;;;;914.72;813.80;;;;;;;;;;5004058;28;20248;-77
2021/09/19 06:18:37;;;;;;;906.40;805.78;;;;;;;;;;5006619;28;20025;-77
2021/09/19 06:21:03;;;;;;;921.20;820.00;;;;;;;;;;5005524;28;20279;-75
2021/09/19 06:23:30;;;;;;;918.63;817.92;;;;;;;;;;5006715;28;20092;-77
2021/09/19 06:25:56;;;;;;;929.53;827.90;;;;;;;;;;5015350;28;20478;-78
2021/09/19 06:28:22;;;;;;;920.30;819.45;;;;;;;;;;5013996;28;20013;-76
2021/09/19 06:30:48;;;;;;;924.58;823.67;;;;;;;;;;5005820;28;20029;-78
2021/09/19 06:33:14;;;;;;;942.58;840.72;;;;;;;;;;5005414;28;20034;-77
2021/09/19 06:35:41;;;;;;;948.53;846.53;;;;;;;;;;5003083;28;20026;-78
2021/09/19 06:38:07;;;;;;;944.78;843.10;;;;;;;;;;5006781;28;20438;-76
2021/09/19 06:40:33;;;;;;;943.78;842.25;;;;;;;;;;5005059;28;20077;-76
2021/09/19 06:42:59;;;;;;;946.70;844.88;;;;;;;;;;5004918;28;20333;-76
2021/09/19 06:45:25;;;;;;;956.13;853.92;;;;;;;;;;5001179;28;20022;-77
2021/09/19 06:47:51;;;;;;;951.97;850.10;;;;;;;;;;4987057;28;20126;-77
2021/09/19 06:50:17;;;;;;;946.63;845.00;;;;;;;;;;5002949;28;20526;-77
2021/09/19 06:52:43;;;;;;;953.22;851.45;;;;;;;;;;4988271;28;20076;-77
2021/09/19 06:55:09;;;;;;;950.15;848.55;;;;;;;;;;4991513;28;20033;-77
2021/09/19 06:57:35;;;;;;;957.55;855.67;;;;;;;;;;5003758;28;20022;-78
2021/09/19 07:00:03;;;;;;;964.08;862.05;;;;;;;;;;5011210;28;20385;-75
2021/09/19 07:02:29;;;;;;;961.90;859.97;;;;;;;;;;5003763;28;20061;-78
2021/09/19 07:04:54;;;;;;;961.50;859.72;;;;;;;;;;5002999;28;20062;-78
2021/09/19 07:07:20;;;;;;;983.67;880.70;;;;;;;;;;4997254;28;20038;-78
2021/09/19 07:09:46;;;;;;;975.20;872.90;;;;;;;;;;4993742;28;20022;-76
2021/09/19 07:12:12;;;;;;;972.97;870.78;;;;;;;;;;5011405;28;20669;-78
2021/09/19 07:14:38;;;;;;;976.08;873.70;;;;;;;;;;5005906;28;20424;-78
2021/09/19 07:17:04;;;;;;;989.40;886.63;;;;;;;;;;5014522;28;20084;-78
2021/09/19 07:19:31;;;;;;;990.30;887.40;;;;;;;;;;5007574;28;20064;-77
2021/09/19 07:21:57;;;;;;;989.13;885.97;;;;;;;;;;5007115;28;20022;-77
2021/09/19 07:24:22;;;;;;;995.22;891.85;;;;;;;;;;4991421;28;20077;-78
2021/09/19 07:26:48;;;;;;;1001.92;898.42;;;;;;;;;;5007936;28;20378;-77
2021/09/19 07:29:15;;;;;;;996.88;893.72;;;;;;;;;;4996264;28;20121;-77
2021/09/19 07:31:41;;;;;;;1000.97;897.47;;;;;;;;;;5024297;28;20038;-77
2021/09/19 07:34:07;;;;;;;995.00;892.05;;;;;;;;;;5021214;28;20025;-75
2021/09/19 07:36:34;;;;;;;1000.05;896.78;;;;;;;;;;5007475;28;20034;-77
2021/09/19 07:39:05;;;;;;;1009.28;905.47;;;;;;;;;;5003607;28;20463;-77
2021/09/19 07:41:31;;;;;;;1010.30;906.80;;;;;;;;;;5007705;28;20033;-77
2021/09/19 07:43:57;;;;;;;1011.45;907.78;;;;;;;;;;5009021;28;20500;-78
2021/09/19 07:46:23;;;;;;;1023.58;919.28;;;;;;;;;;5001422;28;20072;-76
2021/09/19 07:48:50;;;;;;;1029.53;925.08;;;;;;;;;;5007338;28;20026;-76
2021/09/19 07:51:16;;;;;;;1031.50;926.92;;;;;;;;;;5017916;28;20033;-78
2021/09/19 07:53:45;;;;;;;1032.50;928.22;;;;;;;;;;5014263;28;20025;-78
2021/09/19 07:56:11;;;;;;;1046.32;941.42;;;;;;;;;;5014078;28;20037;-78
2021/09/19 07:58:37;;;;;;;1041.15;936.25;;;;;;;;;;5006259;28;20454;-77
2021/09/19 08:01:03;;;;;;;1050.07;944.95;;;;;;;;;;5007135;28;20105;-77
2021/09/19 08:03:29;;;;;;;1048.25;943.35;;;;;;;;;;5009038;28;20037;-77
2021/09/19 08:05:55;;;;;;;1053.50;948.10;;;;;;;;;;5006824;28;20022;-78
2021/09/19 08:08:21;;;;;;;1037.10;932.63;;;;;;;;;;5014055;28;20022;-77
2021/09/19 08:10:47;;;;;;;1046.40;941.53;;;;;;;;;;5006844;28;20030;-76
2021/09/19 08:13:13;;;;;;;1044.68;939.78;;;;;;;;;;4992393;28;20568;-78
2021/09/19 08:15:40;;;;;;;1045.28;940.03;;;;;;;;;;5003064;28;20033;-76
2021/09/19 08:18:06;;;;;;;1044.30;938.83;;;;;;;;;;5006065;28;20053;-78
2021/09/19 08:20:32;;;;;;;1042.32;937.67;;;;;;;;;;5008578;28;20246;-77
2021/09/19 08:22:58;;;;;;;1054.03;948.72;;;;;;;;;;5007461;28;20031;-77
2021/09/19 08:25:25;;;;;;;1048.97;943.92;;;;;;;;;;5012872;28;20092;-76
2021/09/19 08:27:51;;;;;;;1049.45;944.67;;;;;;;;;;5004813;28;20564;-76
2021/09/19 08:30:18;;;;;;;1051.10;946.13;;;;;;;;;;4995523;28;20037;-76
2021/09/19 08:32:44;;;;;;;1051.90;946.70;;;;;;;;;;5008270;28;20428;-78
2021/09/19 08:35:11;;;;;;;1075.75;969.40;;;;;;;;;;5006133;28;20110;-76
2021/09/19 08:37:37;;;;;;;1060.65;955.38;;;;;;;;;;5007498;28;20129;-76
2021/09/19 08:40:04;;;;;;;1073.45;967.80;;;;;;;;;;5000049;28;20034;-77
2021/09/19 08:42:30;;;;;;;1070.05;964.47;;;;;;;;;;4995549;28;20502;-78
2021/09/19 08:44:56;;;;;;;1076.75;970.70;;;;;;;;;;5007142;28;20197;-77
2021/09/19 08:47:22;;;;;;;1089.43;983.00;;;;;;;;;;5009584;28;20358;-78
2021/09/19 08:49:48;;;;;;;1083.50;977.45;;;;;;;;;;5005662;28;20022;-77
2021/09/19 08:52:14;;;;;;;1088.03;981.78;;;;;;;;;;5002158;28;20516;-77
2021/09/19 08:54:40;;;;;;;1093.72;987.13;;;;;;;;;;5004935;28;20477;-76
2021/09/19 08:57:06;;;;;;;1089.80;983.28;;;;;;;;;;5017580;28;20032;-77
2021/09/19 08:59:42;;;;;;;1086.78;980.75;;;;;;;;;;4992336;28;20030;-76
2021/09/19 09:02:08;;;;;;;1081.47;975.60;;;;;;;;;;5003093;28;20124;-78
2021/09/19 09:04:36;;;;;;;1084.53;978.75;;;;;;;;;;5009595;28;20030;-77
2021/09/19 09:07:03;;;;;;;1097.47;990.55;;;;;;;;;;5000824;28;20022;-77
2021/09/19 09:09:29;;;;;;;1092.95;986.45;;;;;;;;;;5012324;28;20022;-79
2021/09/19 09:12:02;;;;;;;1097.00;990.25;;;;;;;;;;5006467;28;20110;-77
2021/09/19 09:14:28;;;;;;;1108.28;998.42;;;;;;;;;;4997290;28;20129;-76
2021/09/19 09:17:10;;;;;;;1094.22;987.72;;;;;;;;;;5006564;28;20141;-78
2021/09/19 09:19:37;;;;;;;1102.18;994.72;;;;;;;;;;5008799;28;20037;-77
2021/09/19 09:22:03;;;;;;;1091.53;985.28;;;;;;;;;;5007860;28;20087;-79
2021/09/19 09:24:29;;;;;;;1100.35;993.70;;;;;;;;;;5005584;28;20407;-78
2021/09/19 09:26:55;;;;;;;1107.05;997.88;;;;;;;;;;5004774;28;20041;-77
2021/09/19 09:29:21;;;;;;;1099.82;993.15;;;;;;;;;;5004257;28;20057;-78
2021/09/19 09:31:48;;;;;;;1102.80;995.70;;;;;;;;;;5005566;28;20721;-78
2021/09/19 09:34:16;;;;;;;1105.72;997.53;;;;;;;;;;5004611;28;20019;-79
2021/09/19 09:36:55;;;;;;;1108.20;998.22;;;;;;;;;;4999468;28;20034;-79
2021/09/19 09:39:23;;;;;;;1130.05;999.90;;;;;;;;;;5006141;28;20057;-79
2021/09/19 09:41:49;;;;;;;1130.05;999.90;;;;;;;;;;5036952;28;20033;-77
2021/09/19 09:44:24;;;;;;;1130.10;999.90;;;;;;;;;;5004990;28;20053;-78
2021/09/19 09:46:56;;;;;;;1134.82;999.90;;;;;;;;;;5022619;28;20026;-81
2021/09/19 09:49:35;;;;;;;1136.70;999.90;;;;;;;;;;5015286;28;20022;-78
2021/09/19 09:52:24;;;;;;;1140.60;999.90;;;;;;;;;;5002895;28;20481;-78
2021/09/19 09:54:52;;;;;;;1143.23;999.90;;;;;;;;;;4998039;28;20069;-79
2021/09/19 09:57:36;;;;;;;1142.78;999.90;;;;;;;;;;5000868;28;20299;-80
2021/09/19 10:00:02;;;;;;;1145.25;999.90;;;;;;;;;;5006494;28;20056;-79
2021/09/19 10:02:28;;;;;;;1135.47;999.90;;;;;;;;;;5002201;28;20095;-79
2021/09/19 10:04:58;;;;;;;1135.63;999.90;;;;;;;;;;5001783;28;20025;-78
2021/09/19 10:07:24;;;;;;;1130.88;999.90;;;;;;;;;;4999833;28;20022;-77
2021/09/19 10:09:50;;;;;;;1128.57;999.90;;;;;;;;;;4998069;28;20036;-78
2021/09/19 10:12:20;;;;;;;1129.07;999.90;;;;;;;;;;4997423;28;20046;-77
2021/09/19 10:14:49;;;;;;;1121.25;999.90;;;;;;;;;;5006113;28;20541;-76
2021/09/19 10:17:15;;;;;;;1128.53;999.90;;;;;;;;;;4994253;28;20038;-76
2021/09/19 10:19:44;;;;;;;1119.05;999.90;;;;;;;;;;5000819;28;20141;-78
2021/09/19 10:22:11;;;;;;;1125.38;999.90;;;;;;;;;;5009858;28;20034;-77
2021/09/19 10:24:37;;;;;;;1118.28;999.90;;;;;;;;;;5004387;28;20064;-77
2021/09/19 10:27:13;;;;;;;1116.65;999.90;;;;;;;;;;5002888;28;20033;-77
2021/09/19 10:29:39;;;;;;;1120.68;999.90;;;;;;;;;;5004625;28;20045;-78
2021/09/19 10:32:05;;;;;;;1121.25;999.90;;;;;;;;;;5003637;28;20015;-76
2021/09/19 10:34:32;;;;;;;1127.55;999.90;;;;;;;;;;5005245;28;20618;-79
2021/09/19 10:37:00;;;;;;;1124.05;999.90;;;;;;;;;;5009409;28;20129;-80
2021/09/19 10:39:30;;;;;;;1122.75;999.90;;;;;;;;;;5011001;28;20033;-78
2021/09/19 10:42:16;;;;;;;1129.90;999.90;;;;;;;;;;5028011;28;20037;-78
2021/09/19 10:44:45;;;;;;;1125.63;999.90;;;;;;;;;;5014427;28;20785;-78
2021/09/19 10:47:15;;;;;;;1131.57;999.90;;;;;;;;;;5005142;28;20120;-78
2021/09/19 10:49:41;;;;;;;1131.50;999.90;;;;;;;;;;5000251;28;20022;-78
2021/09/19 10:52:08;;;;;;;1126.95;999.90;;;;;;;;;;5004580;28;20270;-78
2021/09/19 10:54:40;;;;;;;1131.70;999.90;;;;;;;;;;4999565;28;20034;-78
2021/09/19 10:57:26;;;;;;;1132.30;999.90;;;;;;;;;;5003952;28;20026;-76
2021/09/19 11:00:08;;;;;;;1124.28;999.90;;;;;;;;;;4998988;28;20109;-76
2021/09/19 11:02:34;;;;;;;1137.38;999.90;;;;;;;;;;5005732;28;20234;-77
2021/09/19 11:05:19;;;;;;;1131.32;999.90;;;;;;;;;;5007062;28;20033;-77
2021/09/19 11:07:46;;;;;;;1136.93;999.90;;;;;;;;;;5007230;28;20030;-76
2021/09/19 11:10:16;;;;;;;1138.50;999.90;;;;;;;;;;4989373;28;20034;-78
2021/09/19 11:12:51;;;;;;;1144.93;999.90;;;;;;;;;;4985975;28;20519;-78
2021/09/19 11:15:24;;;;;;;1134.47;999.90;;;;;;;;;;5001520;28;20552;-76
2021/09/19 11:17:50;;;;;;;1142.88;999.90;;;;;;;;;;5005612;28;20026;-76
2021/09/19 11:20:17;;;;;;;1140.45;999.90;;;;;;;;;;5006659;28;20026;-77
2021/09/19 11:22:43;;;;;;;1140.22;999.90;;;;;;;;;;5005522;28;20022;-76
2021/09/19 11:25:09;;;;;;;1142.97;999.90;;;;;;;;;;5006570;28;20087;-77
2021/09/19 11:27:37;;;;;;;1144.10;999.90;;;;;;;;;;5004887;28;20029;-76
2021/09/19 11:30:04;;;;;;;1138.40;999.90;;;;;;;;;;5007203;28;20171;-78
2021/09/19 11:32:30;;;;;;;1158.75;999.90;;;;;;;;;;5019967;28;20032;-77
2021/09/19 11:34:57;;;;;;;1154.55;999.90;;;;;;;;;;5027149;28;20017;-78
2021/09/19 11:37:25;;;;;;;1155.85;999.90;;;;;;;;;;5026766;28;20203;-78
2021/09/19 11:39:51;;;;;;;1162.82;999.90;;;;;;;;;;5025200;28;20025;-76
2021/09/19 11:42:17;;;;;;;1160.72;999.90;;;;;;;;;;5025242;28;20028;-78
2021/09/19 11:44:47;;;;;;;1150.78;999.90;;;;;;;;;;5020898;28;20037;-77
2021/09/19 11:47:18;;;;;;;1147.15;999.90;;;;;;;;;;4985817;28;20063;-77
2021/09/19 11:49:44;;;;;;;1139.72;999.90;;;;;;;;;;5004731;28;20437;-78
2021/09/19 11:52:10;;;;;;;1152.78;999.90;;;;;;;;;;5005378;28;20127;-78
2021/09/19 11:54:36;;;;;;;1169.60;999.90;;;;;;;;;;5010572;28;20030;-75
2021/09/19 11:57:03;;;;;;;1187.15;999.90;;;;;;;;;;5008860;28;20040;-75
2021/09/19 11:59:29;;;;;;;1210.47;999.90;;;;;;;;;;5008508;28;20521;-78
2021/09/19 12:01:58;;;;;;;1224.32;999.90;;;;;;;;;;5008374;28;20026;-77
2021/09/19 12:04:25;;;;;;;1226.60;999.90;;;;;;;;;;5008834;28;20032;-76
2021/09/19 12:06:52;;;;;;;1238.22;999.90;;;;;;;;;;5010314;28;20073;-77
2021/09/19 12:09:19;;;;;;;1247.88;999.90;;;;;;;;;;5007773;28;20577;-77
2021/09/19 12:11:53;;;;;;;1232.72;999.90;;;;;;;;;;5000804;28;20038;-77
2021/09/19 12:14:27;;;;;;;1220.18;999.90;;;;;;;;;;4997893;28;20105;-76
2021/09/19 12:17:06;;;;;;;1196.28;999.90;;;;;;;;;;5013613;28;20034;-76
2021/09/19 12:19:33;;;;;;;1192.22;999.90;;;;;;;;;;4990519;28;20037;-78
2021/09/19 12:22:01;;;;;;;1184.22;999.90;;;;;;;;;;5011551;28;20037;-77
2021/09/19 12:24:27;;;;;;;1196.88;999.90;;;;;;;;;;5016155;28;20096;-78
2021/09/19 12:27:09;;;;;;;1179.28;999.90;;;;;;;;;;5003752;28;20088;-79
2021/09/19 12:29:35;;;;;;;1178.70;999.90;;;;;;;;;;5007975;28;20036;-77
2021/09/19 12:32:01;;;;;;;1170.88;999.90;;;;;;;;;;4995350;28;20137;-76
2021/09/19 12:34:27;;;;;;;1174.78;999.90;;;;;;;;;;5000549;28;20032;-76
2021/09/19 12:36:55;;;;;;;1160.95;999.90;;;;;;;;;;4998630;28;20053;-78
2021/09/19 12:39:22;;;;;;;1156.70;999.90;;;;;;;;;;4996465;28;20030;-77
2021/09/19 12:41:50;;;;;;;1155.47;999.90;;;;;;;;;;4997824;28;20030;-75
2021/09/19 12:44:16;;;;;;;1152.97;999.90;;;;;;;;;;5004076;28;20060;-76
2021/09/19 12:46:44;;;;;;;1155.32;999.90;;;;;;;;;;5025890;28;20026;-77
2021/09/19 12:49:17;;;;;;;1147.05;999.90;;;;;;;;;;5005026;28;20080;-77
2021/09/19 12:51:59;;;;;;;1152.22;999.90;;;;;;;;;;5002764;28;20048;-77
2021/09/19 12:54:25;;;;;;;1154.18;999.90;;;;;;;;;;5008149;28;20026;-78
2021/09/19 12:56:51;;;;;;;1161.63;999.90;;;;;;;;;;5010400;28;20022;-78
2021/09/19 12:59:21;;;;;;;1154.97;999.90;;;;;;;;;;5008175;28;20032;-78
2021/09/19 13:01:47;;;;;;;1153.70;999.90;;;;;;;;;;5010906;28;20527;-79
2021/09/19 13:04:12;;;;;;;1156.47;999.90;;;;;;;;;;4998972;28;20517;-77
2021/09/19 13:06:39;;;;;;;1161.10;999.90;;;;;;;;;;4993819;28;20075;-78
2021/09/19 13:09:06;;;;;;;1158.22;999.90;;;;;;;;;;4998218;28;20077;-77
2021/09/19 13:11:32;;;;;;;1159.15;999.90;;;;;;;;;;5006588;28;20607;-76
2021/09/19 13:13:58;;;;;;;1152.72;999.90;;;;;;;;;;4997698;28;20029;-77
2021/09/19 13:16:24;;;;;;;1163.63;999.90;;;;;;;;;;5003800;28;20117;-76
2021/09/19 13:18:50;;;;;;;1160.35;999.90;;;;;;;;;;5009443;28;20025;-77
2021/09/19 13:21:16;;;;;;;1158.43;999.90;;;;;;;;;;5001260;28;20397;-78
2021/09/19 13:23:42;;;;;;;1162.25;999.90;;;;;;;;;;5002622;28;20029;-78
2021/09/19 13:26:08;;;;;;;1159.68;999.90;;;;;;;;;;4989768;28;20022;-73
2021/09/19 13:28:34;;;;;;;1172.05;999.90;;;;;;;;;;5000865;28;20041;-77
2021/09/19 13:31:00;;;;;;;1168.10;999.90;;;;;;;;;;5002392;28;20045;-77
2021/09/19 13:33:26;;;;;;;1163.28;999.90;;;;;;;;;;5021204;28;20163;-77
2021/09/19 13:35:53;;;;;;;1155.43;999.90;;;;;;;;;;5003570;28;20027;-76
2021/09/19 13:38:19;;;;;;;1159.35;999.90;;;;;;;;;;5005288;28;20026;-79
2021/09/19 13:40:45;;;;;;;1149.80;999.90;;;;;;;;;;5003550;28;20036;-76
2021/09/19 13:43:11;;;;;;;1159.40;999.90;;;;;;;;;;5002373;28;20129;-77
2021/09/19 13:45:38;;;;;;;1146.07;999.90;;;;;;;;;;5002457;28;20025;-76